sensor_id;sensor_type;location;lat;lon;timestamp;temperature;humidity
18868;DHT22;9563;49.240;9.088;2024-01-06T05:00:25;5.30;99.90
18868;DHT22;9563;49.240;9.088;2024-01-06T05:02:52;5.30;99.90
18868;DHT22;9563;49.240;9.088;2024-01-06T05:05:19;5.40;99.90
18868;DHT22;9563;49.240;9.088;2024-01-06T05:07:45;5.40;99.90
18868;DHT22;9563;49.240;9.088;2024-01-06T05:10:12;5.40;99.90
18868;DHT22;9563;49.240;9.088;2024-01-06T05:12:39;5.40;99.90
18868;DHT22;9563;49.240;9.088;2024-01-06T05:15:07;5.40;99.90
18868;DHT22;9563;49.240;9.088;2024-01-06T05:17:35;5.40;99.90
18868;DHT22;9563;49.240;9.088;2024-01-06T05:20:02;5.40;99.90
18868;DHT22;9563;49.240;9.088;2024-01-06T05:22:29;5.40;99.90
18868;DHT22;9563;49.240;9.088;2024-01-06T05:24:56;5.30;99.90
18868;DHT22;9563;49.240;9.088;2024-01-06T05:27:23;5.30;99.90
18868;DHT22;9563;49.240;9.088;2024-01-06T05:29:50;5.40;99.90
18868;DHT22;9563;49.240;9.088;2024-01-06T05:32:17;5.40;99.90
18868;DHT22;9563;49.240;9.088;2024-01-06T05:34:45;5.30;99.90
18868;DHT22;9563;49.240;9.088;2024-01-06T05:37:12;5.30;99.90
18868;DHT22;9563;49.240;9.088;2024-01-06T05:39:39;5.30;99.90
18868;DHT22;9563;49.240;9.088;2024-01-06T05:42:07;5.30;99.90
18868;DHT22;9563;49.240;9.088;2024-01-06T05:44:35;5.30;99.90
18868;DHT22;9563;49.240;9.088;2024-01-06T05:47:03;5.30;99.90
18868;DHT22;9563;49.240;9.088;2024-01-06T05:49:30;5.30;99.90
18868;DHT22;9563;49.240;9.088;2024-01-06T05:51:58;5.30;99.90
18868;DHT22;9563;49.240;9.088;2024-01-06T05:54:25;5.30;99.90
18868;DHT22;9563;49.240;9.088;2024-01-06T05:56:52;5.40;99.90
18868;DHT22;9563;49.240;9.088;2024-01-06T05:59:19;5.40;99.90
18868;DHT22;9563;49.240;9.088;2024-01-06T06:01:46;5.30;99.90
18868;DHT22;9563;49.240;9.088;2024-01-06T06:04:12;5.40;99.90
18868;DHT22;9563;49.240;9.088;2024-01-06T06:06:39;5.40;99.90
18868;DHT22;9563;49.240;9.088;2024-01-06T06:09:08;5.50;99.90
18868;DHT22;9563;49.240;9.088;2024-01-06T06:11:35;5.50;99.90
18868;DHT22;9563;49.240;9.088;2024-01-06T06:14:02;5.60;99.90
18868;DHT22;9563;49.240;9.088;2024-01-06T06:16:30;5.60;99.90
18868;DHT22;9563;49.240;9.088;2024-01-06T06:18:57;5.70;99.90
18868;DHT22;9563;49.240;9.088;2024-01-06T06:21:24;5.70;99.90
18868;DHT22;9563;49.240;9.088;2024-01-06T06:23:51;5.70;99.90
18868;DHT22;9563;49.240;9.088;2024-01-06T06:26:19;5.70;99.90
18868;DHT22;9563;49.240;9.088;2024-01-06T06:28:46;5.70;99.90
18868;DHT22;9563;49.240;9.088;2024-01-06T06:31:13;5.70;99.90
18868;DHT22;9563;49.240;9.088;2024-01-06T06:33:40;5.70;99.90
18868;DHT22;9563;49.240;9.088;2024-01-06T06:36:07;5.70;99.90
18868;DHT22;9563;49.240;9.088;2024-01-06T06:38:35;5.70;99.90
18868;DHT22;9563;49.240;9.088;2024-01-06T06:41:02;5.70;99.90
18868;DHT22;9563;49.240;9.088;2024-01-06T06:43:30;5.70;99.90
18868;DHT22;9563;49.240;9.088;2024-01-06T06:45:57;5.70;99.90
18868;DHT22;9563;49.240;9.088;2024-01-06T06:48:24;5.70;99.90
18868;DHT22;9563;49.240;9.088;2024-01-06T06:50:51;5.60;99.90
18868;DHT22;9563;49.240;9.088;2024-01-06T06:53:18;5.70;99.90
18868;DHT22;9563;49.240;9.088;2024-01-06T06:55:44;5.70;99.90
18868;DHT22;9563;49.240;9.088;2024-01-06T06:58:12;5.70;99.90
18868;DHT22;9563;49.240;9.088;2024-01-06T07:00:41;5.60;99.90
18868;DHT22;9563;49.240;9.088;2024-01-06T07:03:08;5.60;99.90
18868;DHT22;9563;49.240;9.088;2024-01-06T07:05:35;5.70;99.90
18868;DHT22;9563;49.240;9.088;2024-01-06T07:08:02;5.70;99.90
18868;DHT22;9563;49.240;9.088;2024-01-06T07:10:32;5.60;99.90
18868;DHT22;9563;49.240;9.088;2024-01-06T07:12:59;5.50;99.90
18868;DHT22;9563;49.240;9.088;2024-01-06T07:15:26;5.60;99.90
18868;DHT22;9563;49.240;9.088;2024-01-06T07:17:54;5.50;99.90
18868;DHT22;9563;49.240;9.088;2024-01-06T07:20:21;5.50;99.90
18868;DHT22;9563;49.240;9.088;2024-01-06T07:22:48;5.50;99.90
18868;DHT22;9563;49.240;9.088;2024-01-06T07:25:15;5.50;99.90
18868;DHT22;9563;49.240;9.088;2024-01-06T07:27:42;5.40;99.90
18868;DHT22;9563;49.240;9.088;2024-01-06T07:30:09;5.40;99.90
18868;DHT22;9563;49.240;9.088;2024-01-06T07:32:37;5.40;99.90
18868;DHT22;9563;49.240;9.088;2024-01-06T07:35:05;5.40;99.90
18868;DHT22;9563;49.240;9.088;2024-01-06T07:37:32;5.40;99.90
18868;DHT22;9563;49.240;9.088;2024-01-06T07:39:59;5.40;99.90
18868;DHT22;9563;49.240;9.088;2024-01-06T07:42:26;5.30;99.90
18868;DHT22;9563;49.240;9.088;2024-01-06T07:44:53;5.30;99.90
18868;DHT22;9563;49.240;9.088;2024-01-06T07:47:20;5.30;99.90
18868;DHT22;9563;49.240;9.088;2024-01-06T07:49:47;5.20;99.90
18868;DHT22;9563;49.240;9.088;2024-01-06T07:52:15;5.30;99.90
18868;DHT22;9563;49.240;9.088;2024-01-06T07:54:42;5.30;99.90
18868;DHT22;9563;49.240;9.088;2024-01-06T07:57:09;5.40;99.90
18868;DHT22;9563;49.240;9.088;2024-01-06T07:59:37;5.50;99.90
18868;DHT22;9563;49.240;9.088;2024-01-06T08:02:04;5.60;99.90
18868;DHT22;9563;49.240;9.088;2024-01-06T08:04:31;5.60;99.90
18868;DHT22;9563;49.240;9.088;2024-01-06T08:06:58;5.60;99.90
18868;DHT22;9563;49.240;9.088;2024-01-06T08:09:26;5.60;99.90
18868;DHT22;9563;49.240;9.088;2024-01-06T08:11:53;5.70;99.90
18868;DHT22;9563;49.240;9.088;2024-01-06T08:14:20;5.70;99.90
18868;DHT22;9563;49.240;9.088;2024-01-06T08:16:47;5.70;99.90
18868;DHT22;9563;49.240;9.088;2024-01-06T08:19:14;5.80;99.90
18868;DHT22;9563;49.240;9.088;2024-01-06T08:21:42;5.70;99.90
18868;DHT22;9563;49.240;9.088;2024-01-06T08:24:10;5.70;99.90
18868;DHT22;9563;49.240;9.088;2024-01-06T08:26:38;5.70;99.90
18868;DHT22;9563;49.240;9.088;2024-01-06T08:29:05;5.70;99.90
18868;DHT22;9563;49.240;9.088;2024-01-06T08:31:32;5.60;99.90
18868;DHT22;9563;49.240;9.088;2024-01-06T08:33:59;5.60;99.90
18868;DHT22;9563;49.240;9.088;2024-01-06T08:36:26;5.60;99.90
18868;DHT22;9563;49.240;9.088;2024-01-06T08:38:53;5.60;99.90
18868;DHT22;9563;49.240;9.088;2024-01-06T08:41:20;5.70;99.90
18868;DHT22;9563;49.240;9.088;2024-01-06T08:43:49;5.70;99.90
18868;DHT22;9563;49.240;9.088;2024-01-06T08:46:16;5.80;99.90
18868;DHT22;9563;49.240;9.088;2024-01-06T08:48:43;5.90;99.90
18868;DHT22;9563;49.240;9.088;2024-01-06T08:51:09;6.00;99.90
18868;DHT22;9563;49.240;9.088;2024-01-06T08:53:36;6.00;99.90
18868;DHT22;9563;49.240;9.088;2024-01-06T08:56:04;5.90;99.90
18868;DHT22;9563;49.240;9.088;2024-01-06T08:58:31;6.00;99.90
18868;DHT22;9563;49.240;9.088;2024-01-06T09:01:00;6.00;99.90
18868;DHT22;9563;49.240;9.088;2024-01-06T09:03:27;6.00;99.90
18868;DHT22;9563;49.240;9.088;2024-01-06T09:05:56;5.90;99.90
18868;DHT22;9563;49.240;9.088;2024-01-06T09:08:23;5.80;99.90
18868;DHT22;9563;49.240;9.088;2024-01-06T09:10:50;5.80;99.90
18868;DHT22;9563;49.240;9.088;2024-01-06T09:13:21;5.70;99.90
18868;DHT22;9563;49.240;9.088;2024-01-06T09:15:48;5.70;99.90
18868;DHT22;9563;49.240;9.088;2024-01-06T09:18:17;5.60;99.90
18868;DHT22;9563;49.240;9.088;2024-01-06T09:20:44;5.60;99.90
18868;DHT22;9563;49.240;9.088;2024-01-06T09:23:13;5.60;99.90
18868;DHT22;9563;49.240;9.088;2024-01-06T09:25:40;5.60;99.90
18868;DHT22;9563;49.240;9.088;2024-01-06T09:28:07;5.70;99.90
18868;DHT22;9563;49.240;9.088;2024-01-06T09:30:34;5.80;99.90
18868;DHT22;9563;49.240;9.088;2024-01-06T09:33:03;5.90;99.90
18868;DHT22;9563;49.240;9.088;2024-01-06T09:35:31;5.80;99.90
18868;DHT22;9563;49.240;9.088;2024-01-06T09:37:58;5.80;99.90
18868;DHT22;9563;49.240;9.088;2024-01-06T09:40:25;5.80;99.90
18868;DHT22;9563;49.240;9.088;2024-01-06T09:42:53;5.80;99.90
18868;DHT22;9563;49.240;9.088;2024-01-06T09:45:21;5.90;99.90
18868;DHT22;9563;49.240;9.088;2024-01-06T09:47:50;5.80;99.90
18868;DHT22;9563;49.240;9.088;2024-01-06T09:50:18;5.90;99.90
18868;DHT22;9563;49.240;9.088;2024-01-06T09:52:48;6.00;99.90
18868;DHT22;9563;49.240;9.088;2024-01-06T09:55:23;6.00;99.90
18868;DHT22;9563;49.240;9.088;2024-01-06T09:57:52;6.00;99.90
18868;DHT22;9563;49.240;9.088;2024-01-06T10:00:19;6.00;99.90
18868;DHT22;9563;49.240;9.088;2024-01-06T10:02:47;6.10;99.90
18868;DHT22;9563;49.240;9.088;2024-01-06T10:05:15;6.20;99.90
18868;DHT22;9563;49.240;9.088;2024-01-06T10:07:42;6.20;99.90
18868;DHT22;9563;49.240;9.088;2024-01-06T10:10:12;6.10;99.90
18868;DHT22;9563;49.240;9.088;2024-01-06T10:12:41;6.10;99.90
18868;DHT22;9563;49.240;9.088;2024-01-06T10:15:09;6.20;99.90
18868;DHT22;9563;49.240;9.088;2024-01-06T10:17:36;6.20;99.90
18868;DHT22;9563;49.240;9.088;2024-01-06T10:20:07;6.20;99.90
18868;DHT22;9563;49.240;9.088;2024-01-06T10:22:35;6.10;99.90
18868;DHT22;9563;49.240;9.088;2024-01-06T10:25:02;6.00;99.90
18868;DHT22;9563;49.240;9.088;2024-01-06T10:27:31;6.00;99.90
18868;DHT22;9563;49.240;9.088;2024-01-06T10:30:00;6.00;99.90
18868;DHT22;9563;49.240;9.088;2024-01-06T10:32:27;5.90;99.90
18868;DHT22;9563;49.240;9.088;2024-01-06T10:34:57;5.90;99.90
18868;DHT22;9563;49.240;9.088;2024-01-06T10:37:24;5.80;99.90
18868;DHT22;9563;49.240;9.088;2024-01-06T10:40:06;5.80;99.90
18868;DHT22;9563;49.240;9.088;2024-01-06T10:42:36;5.80;99.90
18868;DHT22;9563;49.240;9.088;2024-01-06T10:45:05;5.90;99.90
18868;DHT22;9563;49.240;9.088;2024-01-06T10:47:34;5.90;99.90
18868;DHT22;9563;49.240;9.088;2024-01-06T10:50:01;5.90;99.90
18868;DHT22;9563;49.240;9.088;2024-01-06T10:52:29;5.80;99.90
18868;DHT22;9563;49.240;9.088;2024-01-06T10:54:56;5.90;99.90
18868;DHT22;9563;49.240;9.088;2024-01-06T10:57:24;5.90;99.90
18868;DHT22;9563;49.240;9.088;2024-01-06T10:59:52;6.00;99.90
18868;DHT22;9563;49.240;9.088;2024-01-06T11:02:20;6.00;99.90
18868;DHT22;9563;49.240;9.088;2024-01-06T11:04:48;6.20;99.90
18868;DHT22;9563;49.240;9.088;2024-01-06T11:07:18;6.20;99.90
18868;DHT22;9563;49.240;9.088;2024-01-06T11:09:49;6.20;99.90
18868;DHT22;9563;49.240;9.088;2024-01-06T11:12:18;6.20;99.90
18868;DHT22;9563;49.240;9.088;2024-01-06T11:14:45;6.30;99.90
18868;DHT22;9563;49.240;9.088;2024-01-06T11:17:49;6.20;99.90
18868;DHT22;9563;49.240;9.088;2024-01-06T11:20:19;6.30;99.90
18868;DHT22;9563;49.240;9.088;2024-01-06T11:22:46;6.40;99.90
18868;DHT22;9563;49.240;9.088;2024-01-06T11:25:14;6.50;99.90
18868;DHT22;9563;49.240;9.088;2024-01-06T11:27:43;6.50;99.90
18868;DHT22;9563;49.240;9.088;2024-01-06T11:30:20;6.50;99.90
18868;DHT22;9563;49.240;9.088;2024-01-06T11:32:48;6.60;99.90
18868;DHT22;9563;49.240;9.088;2024-01-06T11:35:15;6.70;99.90
18868;DHT22;9563;49.240;9.088;2024-01-06T11:37:54;6.70;99.90
18868;DHT22;9563;49.240;9.088;2024-01-06T11:40:25;6.80;99.90
18868;DHT22;9563;49.240;9.088;2024-01-06T11:43:00;6.80;99.90
18868;DHT22;9563;49.240;9.088;2024-01-06T11:45:28;6.80;99.90
18868;DHT22;9563;49.240;9.088;2024-01-06T11:47:58;6.70;99.90
18868;DHT22;9563;49.240;9.088;2024-01-06T11:50:25;6.70;99.90
18868;DHT22;9563;49.240;9.088;2024-01-06T11:52:52;6.70;99.90
18868;DHT22;9563;49.240;9.088;2024-01-06T11:55:20;6.80;99.90
18868;DHT22;9563;49.240;9.088;2024-01-06T11:57:47;6.90;99.90
18868;DHT22;9563;49.240;9.088;2024-01-06T12:00:16;7.00;99.90
18868;DHT22;9563;49.240;9.088;2024-01-06T12:02:43;6.90;99.90
18868;DHT22;9563;49.240;9.088;2024-01-06T12:05:14;6.90;99.90
18868;DHT22;9563;49.240;9.088;2024-01-06T12:07:43;6.90;99.90
18868;DHT22;9563;49.240;9.088;2024-01-06T12:10:10;6.70;99.90
18868;DHT22;9563;49.240;9.088;2024-01-06T12:12:39;6.70;99.90
18868;DHT22;9563;49.240;9.088;2024-01-06T12:15:07;6.60;99.90
18868;DHT22;9563;49.240;9.088;2024-01-06T12:17:35;6.70;99.90
18868;DHT22;9563;49.240;9.088;2024-01-06T12:20:03;6.80;99.90
18868;DHT22;9563;49.240;9.088;2024-01-06T12:22:32;6.70;99.90
18868;DHT22;9563;49.240;9.088;2024-01-06T12:24:59;6.80;99.90
18868;DHT22;9563;49.240;9.088;2024-01-06T12:27:26;6.80;99.90
18868;DHT22;9563;49.240;9.088;2024-01-06T12:29:53;6.80;99.90
18868;DHT22;9563;49.240;9.088;2024-01-06T12:32:20;6.90;99.90
18868;DHT22;9563;49.240;9.088;2024-01-06T12:34:47;6.90;99.90
18868;DHT22;9563;49.240;9.088;2024-01-06T12:37:14;7.00;99.90
18868;DHT22;9563;49.240;9.088;2024-01-06T12:39:44;7.00;99.90
18868;DHT22;9563;49.240;9.088;2024-01-06T12:42:15;7.00;99.90
18868;DHT22;9563;49.240;9.088;2024-01-06T12:44:43;7.00;99.90
18868;DHT22;9563;49.240;9.088;2024-01-06T12:47:10;7.00;99.90
18868;DHT22;9563;49.240;9.088;2024-01-06T12:49:37;7.00;99.90
18868;DHT22;9563;49.240;9.088;2024-01-06T12:52:04;6.90;99.90
18868;DHT22;9563;49.240;9.088;2024-01-06T12:54:32;6.90;99.90
18868;DHT22;9563;49.240;9.088;2024-01-06T12:57:00;6.70;99.90
18868;DHT22;9563;49.240;9.088;2024-01-06T12:59:27;6.70;99.90
18868;DHT22;9563;49.240;9.088;2024-01-06T13:01:55;6.70;99.90
18868;DHT22;9563;49.240;9.088;2024-01-06T13:04:23;6.80;99.90
18868;DHT22;9563;49.240;9.088;2024-01-06T13:06:50;6.90;99.90
18868;DHT22;9563;49.240;9.088;2024-01-06T13:09:17;7.00;99.90
18868;DHT22;9563;49.240;9.088;2024-01-06T13:11:44;7.00;99.90
18868;DHT22;9563;49.240;9.088;2024-01-06T13:14:14;7.10;99.90
18868;DHT22;9563;49.240;9.088;2024-01-06T13:16:41;7.10;99.90
18868;DHT22;9563;49.240;9.088;2024-01-06T13:19:07;7.20;99.90
18868;DHT22;9563;49.240;9.088;2024-01-06T13:21:34;7.20;99.90
18868;DHT22;9563;49.240;9.088;2024-01-06T13:24:06;7.30;99.90
18868;DHT22;9563;49.240;9.088;2024-01-06T13:26:33;7.30;99.90
18868;DHT22;9563;49.240;9.088;2024-01-06T13:29:00;7.30;99.90
18868;DHT22;9563;49.240;9.088;2024-01-06T13:31:28;7.30;99.90
18868;DHT22;9563;49.240;9.088;2024-01-06T13:33:56;7.30;99.90
18868;DHT22;9563;49.240;9.088;2024-01-06T13:36:23;7.30;99.90
18868;DHT22;9563;49.240;9.088;2024-01-06T13:38:50;7.30;99.90
18868;DHT22;9563;49.240;9.088;2024-01-06T13:41:17;7.40;99.90
18868;DHT22;9563;49.240;9.088;2024-01-06T13:43:44;7.40;99.90
18868;DHT22;9563;49.240;9.088;2024-01-06T13:46:11;7.40;99.90
18868;DHT22;9563;49.240;9.088;2024-01-06T13:48:41;7.30;99.90
18868;DHT22;9563;49.240;9.088;2024-01-06T13:51:08;7.30;99.90
18868;DHT22;9563;49.240;9.088;2024-01-06T13:53:35;7.20;99.90
18868;DHT22;9563;49.240;9.088;2024-01-06T13:56:03;7.00;99.90
18868;DHT22;9563;49.240;9.088;2024-01-06T13:58:30;7.00;99.90
18868;DHT22;9563;49.240;9.088;2024-01-06T14:00:57;7.10;99.90
18868;DHT22;9563;49.240;9.088;2024-01-06T14:03:24;7.20;99.90
18868;DHT22;9563;49.240;9.088;2024-01-06T14:05:52;7.20;99.90
18868;DHT22;9563;49.240;9.088;2024-01-06T14:08:19;7.10;99.90
18868;DHT22;9563;49.240;9.088;2024-01-06T14:10:46;7.00;99.90
18868;DHT22;9563;49.240;9.088;2024-01-06T14:13:13;6.90;99.90
18868;DHT22;9563;49.240;9.088;2024-01-06T14:15:40;6.80;99.90
18868;DHT22;9563;49.240;9.088;2024-01-06T14:18:07;6.90;99.90
18868;DHT22;9563;49.240;9.088;2024-01-06T14:20:36;6.90;99.90
18868;DHT22;9563;49.240;9.088;2024-01-06T14:23:05;7.00;99.90
18868;DHT22;9563;49.240;9.088;2024-01-06T14:25:32;7.10;99.90
18868;DHT22;9563;49.240;9.088;2024-01-06T14:27:59;7.10;99.90
18868;DHT22;9563;49.240;9.088;2024-01-06T14:30:26;7.10;99.90
18868;DHT22;9563;49.240;9.088;2024-01-06T14:32:54;7.10;99.90
18868;DHT22;9563;49.240;9.088;2024-01-06T14:35:21;7.00;99.90
18868;DHT22;9563;49.240;9.088;2024-01-06T14:37:47;6.90;99.90
18868;DHT22;9563;49.240;9.088;2024-01-06T14:40:17;6.90;99.90
18868;DHT22;9563;49.240;9.088;2024-01-06T14:42:44;7.00;99.90
18868;DHT22;9563;49.240;9.088;2024-01-06T14:45:11;6.90;99.90
18868;DHT22;9563;49.240;9.088;2024-01-06T14:47:39;7.00;99.90
18868;DHT22;9563;49.240;9.088;2024-01-06T14:50:07;7.10;99.90
18868;DHT22;9563;49.240;9.088;2024-01-06T14:52:34;7.00;99.90
18868;DHT22;9563;49.240;9.088;2024-01-06T14:55:01;7.00;99.90
18868;DHT22;9563;49.240;9.088;2024-01-06T14:57:30;6.90;99.90
18868;DHT22;9563;49.240;9.088;2024-01-06T14:59:57;6.90;99.90
18868;DHT22;9563;49.240;9.088;2024-01-06T15:02:24;7.00;99.90
18868;DHT22;9563;49.240;9.088;2024-01-06T15:04:51;7.00;99.90
18868;DHT22;9563;49.240;9.088;2024-01-06T15:07:19;7.10;99.90
18868;DHT22;9563;49.240;9.088;2024-01-06T15:09:46;7.00;99.90
18868;DHT22;9563;49.240;9.088;2024-01-06T15:12:13;7.10;99.90
18868;DHT22;9563;49.240;9.088;2024-01-06T15:14:41;7.10;99.90
18868;DHT22;9563;49.240;9.088;2024-01-06T15:17:08;7.10;99.90
18868;DHT22;9563;49.240;9.088;2024-01-06T15:19:35;7.10;99.90
18868;DHT22;9563;49.240;9.088;2024-01-06T15:22:03;7.10;99.90
18868;DHT22;9563;49.240;9.088;2024-01-06T15:24:30;7.10;99.90
18868;DHT22;9563;49.240;9.088;2024-01-06T15:26:57;7.20;99.90
18868;DHT22;9563;49.240;9.088;2024-01-06T15:29:24;7.20;99.90
18868;DHT22;9563;49.240;9.088;2024-01-06T15:31:53;7.20;99.90
18868;DHT22;9563;49.240;9.088;2024-01-06T15:34:22;7.20;99.90
18868;DHT22;9563;49.240;9.088;2024-01-06T15:36:49;7.10;99.90
18868;DHT22;9563;49.240;9.088;2024-01-06T15:39:16;7.10;99.90
18868;DHT22;9563;49.240;9.088;2024-01-06T15:41:43;7.00;99.90
18868;DHT22;9563;49.240;9.088;2024-01-06T15:44:10;7.10;99.90
18868;DHT22;9563;49.240;9.088;2024-01-06T15:46:37;7.10;99.90
18868;DHT22;9563;49.240;9.088;2024-01-06T15:49:06;7.10;99.90
18868;DHT22;9563;49.240;9.088;2024-01-06T15:51:32;7.10;99.90
18868;DHT22;9563;49.240;9.088;2024-01-06T15:53:59;7.10;99.90
18868;DHT22;9563;49.240;9.088;2024-01-06T15:56:26;7.00;99.90
18868;DHT22;9563;49.240;9.088;2024-01-06T15:58:53;6.90;99.90
18868;DHT22;9563;49.240;9.088;2024-01-06T16:01:22;6.90;99.90
18868;DHT22;9563;49.240;9.088;2024-01-06T16:03:49;6.90;99.90
18868;DHT22;9563;49.240;9.088;2024-01-06T16:06:18;6.90;99.90
18868;DHT22;9563;49.240;9.088;2024-01-06T16:08:45;6.90;99.90
18868;DHT22;9563;49.240;9.088;2024-01-06T16:11:11;6.90;99.90
18868;DHT22;9563;49.240;9.088;2024-01-06T16:13:38;6.80;99.90
18868;DHT22;9563;49.240;9.088;2024-01-06T16:16:06;6.80;99.90
18868;DHT22;9563;49.240;9.088;2024-01-06T16:18:33;6.80;99.90
18868;DHT22;9563;49.240;9.088;2024-01-06T16:21:00;6.80;99.90
18868;DHT22;9563;49.240;9.088;2024-01-06T16:23:30;6.70;99.90
18868;DHT22;9563;49.240;9.088;2024-01-06T16:25:57;6.70;99.90
18868;DHT22;9563;49.240;9.088;2024-01-06T16:28:25;6.70;99.90
18868;DHT22;9563;49.240;9.088;2024-01-06T16:30:52;6.60;99.90
18868;DHT22;9563;49.240;9.088;2024-01-06T16:33:19;6.70;99.90
18868;DHT22;9563;49.240;9.088;2024-01-06T16:35:46;6.60;99.90
18868;DHT22;9563;49.240;9.088;2024-01-06T16:38:13;6.60;99.90
18868;DHT22;9563;49.240;9.088;2024-01-06T16:40:41;6.60;99.90
18868;DHT22;9563;49.240;9.088;2024-01-06T16:43:09;6.60;99.90
18868;DHT22;9563;49.240;9.088;2024-01-06T16:45:37;6.60;99.90
18868;DHT22;9563;49.240;9.088;2024-01-06T16:48:05;6.60;99.90
18868;DHT22;9563;49.240;9.088;2024-01-06T16:50:32;6.60;99.90
18868;DHT22;9563;49.240;9.088;2024-01-06T16:52:59;6.60;99.90
18868;DHT22;9563;49.240;9.088;2024-01-06T16:55:26;6.70;99.90
18868;DHT22;9563;49.240;9.088;2024-01-06T16:57:54;6.70;99.90
18868;DHT22;9563;49.240;9.088;2024-01-06T17:00:25;6.80;99.90
18868;DHT22;9563;49.240;9.088;2024-01-06T17:02:53;6.80;99.90
18868;DHT22;9563;49.240;9.088;2024-01-06T17:05:20;6.90;99.90
18868;DHT22;9563;49.240;9.088;2024-01-06T17:07:47;6.90;99.90
18868;DHT22;9563;49.240;9.088;2024-01-06T17:10:14;6.90;99.90
18868;DHT22;9563;49.240;9.088;2024-01-06T17:12:41;6.90;99.90
18868;DHT22;9563;49.240;9.088;2024-01-06T17:15:11;6.90;99.90
18868;DHT22;9563;49.240;9.088;2024-01-06T17:17:39;6.90;99.90
18868;DHT22;9563;49.240;9.088;2024-01-06T17:20:07;6.90;99.90
18868;DHT22;9563;49.240;9.088;2024-01-06T17:22:36;7.00;99.90
18868;DHT22;9563;49.240;9.088;2024-01-06T17:25:03;7.00;99.90
18868;DHT22;9563;49.240;9.088;2024-01-06T17:27:31;7.00;99.90
18868;DHT22;9563;49.240;9.088;2024-01-06T17:29:57;7.00;99.90
18868;DHT22;9563;49.240;9.088;2024-01-06T17:32:25;7.00;99.90
18868;DHT22;9563;49.240;9.088;2024-01-06T17:34:52;7.00;99.90
18868;DHT22;9563;49.240;9.088;2024-01-06T17:37:20;7.00;99.90
18868;DHT22;9563;49.240;9.088;2024-01-06T17:39:47;7.00;99.90
18868;DHT22;9563;49.240;9.088;2024-01-06T17:42:14;7.00;99.90
18868;DHT22;9563;49.240;9.088;2024-01-06T17:44:41;7.00;99.90
18868;DHT22;9563;49.240;9.088;2024-01-06T17:47:10;7.00;99.90
18868;DHT22;9563;49.240;9.088;2024-01-06T17:49:40;7.00;99.90
18868;DHT22;9563;49.240;9.088;2024-01-06T17:52:07;7.00;99.90
18868;DHT22;9563;49.240;9.088;2024-01-06T17:54:36;7.00;99.90
18868;DHT22;9563;49.240;9.088;2024-01-06T17:57:03;7.00;99.90
18868;DHT22;9563;49.240;9.088;2024-01-06T17:59:30;7.00;99.90
18868;DHT22;9563;49.240;9.088;2024-01-06T18:01:57;7.00;99.90
18868;DHT22;9563;49.240;9.088;2024-01-06T18:04:24;6.90;99.90
18868;DHT22;9563;49.240;9.088;2024-01-06T18:06:52;7.00;99.90
18868;DHT22;9563;49.240;9.088;2024-01-06T18:09:20;6.90;99.90
18868;DHT22;9563;49.240;9.088;2024-01-06T18:11:47;7.00;99.90
18868;DHT22;9563;49.240;9.088;2024-01-06T18:14:14;6.90;99.90
18868;DHT22;9563;49.240;9.088;2024-01-06T18:16:41;6.90;99.90
18868;DHT22;9563;49.240;9.088;2024-01-06T18:19:08;6.90;99.90
18868;DHT22;9563;49.240;9.088;2024-01-06T18:21:35;6.90;99.90
18868;DHT22;9563;49.240;9.088;2024-01-06T18:24:03;6.90;99.90
18868;DHT22;9563;49.240;9.088;2024-01-06T18:26:31;6.90;99.90
18868;DHT22;9563;49.240;9.088;2024-01-06T18:28:57;6.90;99.90
18868;DHT22;9563;49.240;9.088;2024-01-06T18:31:24;6.90;99.90
18868;DHT22;9563;49.240;9.088;2024-01-06T18:33:51;6.90;99.90
18868;DHT22;9563;49.240;9.088;2024-01-06T18:36:18;6.90;99.90
18868;DHT22;9563;49.240;9.088;2024-01-06T18:38:45;6.90;99.90
18868;DHT22;9563;49.240;9.088;2024-01-06T18:41:14;6.80;99.90
18868;DHT22;9563;49.240;9.088;2024-01-06T18:43:41;6.90;99.90
18868;DHT22;9563;49.240;9.088;2024-01-06T18:46:08;6.90;99.90
18868;DHT22;9563;49.240;9.088;2024-01-06T18:48:37;6.90;99.90
18868;DHT22;9563;49.240;9.088;2024-01-06T18:51:04;6.90;99.90
18868;DHT22;9563;49.240;9.088;2024-01-06T18:53:31;7.00;99.90
18868;DHT22;9563;49.240;9.088;2024-01-06T18:55:58;7.00;99.90
18868;DHT22;9563;49.240;9.088;2024-01-06T18:58:26;7.00;99.90
18868;DHT22;9563;49.240;9.088;2024-01-06T19:00:53;7.10;99.90
18868;DHT22;9563;49.240;9.088;2024-01-06T19:03:20;7.00;99.90
18868;DHT22;9563;49.240;9.088;2024-01-06T19:05:47;7.10;99.90
18868;DHT22;9563;49.240;9.088;2024-01-06T19:08:14;7.10;99.90
18868;DHT22;9563;49.240;9.088;2024-01-06T19:10:41;7.10;99.90
18868;DHT22;9563;49.240;9.088;2024-01-06T19:13:08;7.00;99.90
18868;DHT22;9563;49.240;9.088;2024-01-06T19:15:37;7.00;99.90
18868;DHT22;9563;49.240;9.088;2024-01-06T19:18:05;6.90;99.90
18868;DHT22;9563;49.240;9.088;2024-01-06T19:20:32;6.90;99.90
18868;DHT22;9563;49.240;9.088;2024-01-06T19:22:58;6.90;99.90
18868;DHT22;9563;49.240;9.088;2024-01-06T19:25:25;6.80;99.90
18868;DHT22;9563;49.240;9.088;2024-01-06T19:27:52;6.90;99.90
18868;DHT22;9563;49.240;9.088;2024-01-06T19:30:19;6.90;99.90
18868;DHT22;9563;49.240;9.088;2024-01-06T19:32:48;6.80;99.90
18868;DHT22;9563;49.240;9.088;2024-01-06T19:35:15;6.80;99.90
18868;DHT22;9563;49.240;9.088;2024-01-06T19:37:42;6.70;99.90
18868;DHT22;9563;49.240;9.088;2024-01-06T19:40:09;6.80;99.90
18868;DHT22;9563;49.240;9.088;2024-01-06T19:42:36;6.80;99.90
18868;DHT22;9563;49.240;9.088;2024-01-06T19:45:04;6.80;99.90
18868;DHT22;9563;49.240;9.088;2024-01-06T19:47:31;6.80;99.90
18868;DHT22;9563;49.240;9.088;2024-01-06T19:50:01;6.80;99.90
18868;DHT22;9563;49.240;9.088;2024-01-06T19:52:28;6.70;99.90
18868;DHT22;9563;49.240;9.088;2024-01-06T19:54:55;6.70;99.90
18868;DHT22;9563;49.240;9.088;2024-01-06T19:57:23;6.70;99.90
18868;DHT22;9563;49.240;9.088;2024-01-06T19:59:50;6.70;99.90
18868;DHT22;9563;49.240;9.088;2024-01-06T20:02:18;6.80;99.90
18868;DHT22;9563;49.240;9.088;2024-01-06T20:04:45;6.80;99.90
18868;DHT22;9563;49.240;9.088;2024-01-06T20:07:14;6.80;99.90
18868;DHT22;9563;49.240;9.088;2024-01-06T20:09:43;6.90;99.90
18868;DHT22;9563;49.240;9.088;2024-01-06T20:12:11;6.90;99.90
18868;DHT22;9563;49.240;9.088;2024-01-06T20:14:37;6.90;99.90
18868;DHT22;9563;49.240;9.088;2024-01-06T20:17:04;6.90;99.90
18868;DHT22;9563;49.240;9.088;2024-01-06T20:19:35;6.90;99.90
18868;DHT22;9563;49.240;9.088;2024-01-06T20:22:02;6.90;99.90
18868;DHT22;9563;49.240;9.088;2024-01-06T20:24:31;7.00;99.90
18868;DHT22;9563;49.240;9.088;2024-01-06T20:26:58;7.00;99.90
18868;DHT22;9563;49.240;9.088;2024-01-06T20:29:25;7.00;99.90
18868;DHT22;9563;49.240;9.088;2024-01-06T20:31:52;7.00;99.90
18868;DHT22;9563;49.240;9.088;2024-01-06T20:34:19;6.90;99.90
18868;DHT22;9563;49.240;9.088;2024-01-06T20:36:46;6.90;99.90
18868;DHT22;9563;49.240;9.088;2024-01-06T20:39:13;7.00;99.90
18868;DHT22;9563;49.240;9.088;2024-01-06T20:41:44;7.00;99.90
18868;DHT22;9563;49.240;9.088;2024-01-06T20:44:11;7.00;99.90
18868;DHT22;9563;49.240;9.088;2024-01-06T20:46:38;7.00;99.90
18868;DHT22;9563;49.240;9.088;2024-01-06T20:49:05;7.00;99.90
18868;DHT22;9563;49.240;9.088;2024-01-06T20:51:32;7.00;99.90
18868;DHT22;9563;49.240;9.088;2024-01-06T20:54:00;7.00;99.90
18868;DHT22;9563;49.240;9.088;2024-01-06T20:56:28;7.10;99.90
18868;DHT22;9563;49.240;9.088;2024-01-06T20:58:56;7.10;99.90
18868;DHT22;9563;49.240;9.088;2024-01-06T21:01:23;7.10;99.90
18868;DHT22;9563;49.240;9.088;2024-01-06T21:03:50;7.10;99.90